Terminal Aerodrome Forecast
Issued by NWS

Home | Current Version | Previous Version | Text Only | Print | Product List | Glossary On
Versions: 1 2 3 4 5 6 7 8 9 10 11 12 13 14 15 16 17 18 19 20 21
613
FTUS43 KDLH 142339
TAFHYR
TAF
KHYR 142339Z 1500/1524 06010KT P6SM -SHRA OVC035
     FM150600 03010KT 5SM -SHRA OVC015
     FM151100 34009KT P6SM OVC015
     FM151500 33008KT P6SM SCT040
     FM152200 28007KT P6SM BKN200=

USA.gov is the U.S. government's official web portal to all federal, state and local government web resources and services.